Patton Village, California
Current Conditions -  °F | °C
As of 7:35 PM on Wednesday 22 Oct 2014 (Local Time) from KRTS Reporting Station
Clear Clear  
Wind Chill: 15°   Ceiling: Unl
Heat Index: 15°   Visibility: 10mi
Dew Point: -3°   Wind: 3mph
Humidity: 29%   Direction: 20°NNE
Pressure: 30.09"   Gusts: NA
Location:  40.3266°N, 120.122°W
Report Text: KRTS 230235Z AUTO 02003KT 10SM CLR 15/M03 A3009 RMK AO2
Loading
Personal Weather Stations






























Interactive Weather Map
Tropical Storm Tracking
New forecast layout! Learn more

10-Day Weather Forecast

Advertisements
Track Severe Weather on mobile